Back to Top
Banner_Quays_at_Mast_2020.jpeg
Banner_VERITY.jpeg
Banner_P42_Kinsale_2004.jpeg
Superyacht_SCOUT.jpg
Kinsale_Trawlers_Banner.jpeg
previous arrow
next arrow

Port Departures Report (AIS)

This report is generated from collected AIS (Automated Identification System) signals from vessels leaving port.

IMO MMSI Class Flag Vessel Name Vessel Type Nav Status Destination Call Sign Latitude Longitude Speed (kts) Course (T) Draught (m) LOA (m) Beam (m) Timestamp
0 250001702 A IE ADRIANNE FISHING. Undefined CO EIGX7 51.6858 -8.49935 6.8 181.6 3.5 21 7 2024-05-26 20:09:24
0 250004156 A IE F/V BREIZH ARVOR II FISHING. - KINSALE EIRX3 51.6859 -8.4967 7.9 175.8 3.2 23 6 2024-05-26 19:40:35
0 250006505 B IE ALPACA SAILING. - EIZF2 51.6861 -8.49956 4.9 180.3 0 12 4 2024-05-26 13:54:29
0 250001311 B IE ZURI SAILING. - EI-EB-7 51.6859 -8.4982 4.4 172.3 0 11 4 2024-05-26 11:22:39
0 227852550 B FR REGAIN SAILING. - FAF3941 51.6863 -8.50089 5.6 158.8 0 9 4 2024-05-26 10:02:16
0 368298120 B US NEW HORIZON Pleasure craft - WDN6334 51.6846 -8.49895 7.6 183 0 14 7 2024-05-26 08:31:28
0 235056074 B GB KAHIA SAILING. - MSXV3 51.6857 -8.50012 7.1 180.7 0 0 0 2024-05-26 08:22:53
0 250013949 B IE PRIME SUSPECT Pleasure craft - EIA2415 51.6866 -8.4996 7.1 185.5 0 11 4 2024-05-25 21:57:29
0 250003271 B IE AURELIA SAILING. - EI-PX-2 51.6851 -8.4998 7.1 177.4 0 12 4 2024-05-25 21:37:55
0 985780101 B 985 EDU LIFEBOAT 1 - - 51.6857 -8.49786 3.1 132.5 0 0 0 2024-05-25 13:43:14
8808939 250000527 A IE F/V RACHEL JAY S448 FISHING. - FISHING EI8447 51.6855 -8.49852 9.4 177.1 0 26 8 2024-05-24 21:28:25
0 250006035 B IE VALFREYA SAILING. - EI-XB-6 51.6863 -8.49497 4.5 152.8 0 10 3 2024-05-24 19:06:47
0 250003677 B IE SIBONEY SAILING. - EI-QT-2 51.6869 -8.49551 6.1 142.9 0 9 4 2024-05-24 19:05:49
0 250006035 B IE VALFREYA SAILING. - EI-XB-6 51.6868 -8.49982 5.3 154.5 0 10 3 2024-05-24 18:42:18
9297462 250106800 A IE OILEAN AN OIR FISHING. - EI7573 51.6862 -8.49852 3.5 187 0 27 8 2024-05-24 16:46:18
0 250103750 B IE HARPY DREDGING / UNDERWATER Ops. - EI7410 51.6859 -8.50132 8.1 172.7 0 13 4 2024-05-24 14:28:07
0 250013607 B IE DRUMLIN SAILING. - EIA2063 51.686 -8.50072 6.3 181.3 0 10 4 2024-05-24 11:39:42
9297462 250106800 A IE OILEAN AN OIR FISHING. - EI7573 41.7017 -8.51728 0 357.7 0 27 8 2024-05-24 11:15:48
9191084 232004160 A GB ANDROMEDA BF437 FISHING. Engaged in Fishing AHEAD MY006 51.6865 -8.49905 5.3 178.3 4.4 25 8 2024-05-24 10:29:32
0 235117908 B GB GOOSE SAILING. - 2JPS5 51.6862 -8.50054 7.7 168.8 0 12 4 2024-05-24 08:56:27